Time;durP1;ratioP1;P1;durP2;ratioP2;P2;SDS_P1;SDS_P2;PMS_P1;PMS_P2;Temp;Humidity;BMP_temperature;BMP_pressure;BME280_temperature;BME280_humidity;BME280_pressure;Samples;Min_cycle;Max_cycle;Signal;HPM_P1;HPM_P2
2021/08/01 00:00:14;;;;;;;3.95;2.55;;;17.60;1.00;;;;;;5024329;28;20568;-83
2021/08/01 00:02:40;;;;;;;4.60;2.85;;;17.60;1.00;;;;;;5034359;28;20021;-83
2021/08/01 00:05:08;;;;;;;6.50;2.70;;;17.60;1.00;;;;;;5030669;28;20489;-83
2021/08/01 00:07:34;;;;;;;7.22;2.70;;;17.60;1.00;;;;;;5034914;28;20034;-81
2021/08/01 00:10:01;;;;;;;5.80;2.78;;;17.60;1.00;;;;;;5025141;28;20033;-80
2021/08/01 00:12:28;;;;;;;2.95;2.33;;;17.60;1.00;;;;;;5034192;28;20037;-81
2021/08/01 00:14:54;;;;;;;5.80;2.60;;;17.60;1.00;;;;;;5033195;28;20104;-81
2021/08/01 00:17:20;;;;;;;3.58;2.38;;;17.50;1.00;;;;;;5030549;28;20054;-81
2021/08/01 00:19:45;;;;;;;3.85;2.38;;;17.50;1.00;;;;;;5032096;28;20443;-81
2021/08/01 00:22:11;;;;;;;3.33;2.33;;;17.40;1.00;;;;;;5035739;28;20029;-81
2021/08/01 00:24:37;;;;;;;3.83;2.63;;;17.40;1.00;;;;;;5033773;28;20402;-81
2021/08/01 00:27:03;;;;;;;2.45;2.20;;;17.30;1.00;;;;;;5034532;28;20068;-81
2021/08/01 00:29:29;;;;;;;4.05;2.00;;;17.30;1.00;;;;;;5033409;28;20043;-81
2021/08/01 00:31:56;;;;;;;3.25;2.30;;;17.30;1.00;;;;;;5030525;28;20030;-81
2021/08/01 00:34:21;;;;;;;4.45;2.22;;;17.30;1.00;;;;;;5035822;28;20030;-81
2021/08/01 00:36:47;;;;;;;3.75;2.40;;;17.40;1.00;;;;;;5033830;28;20037;-81
2021/08/01 00:39:12;;;;;;;2.90;2.28;;;17.40;1.00;;;;;;5033544;28;20040;-81
2021/08/01 00:41:38;;;;;;;4.47;2.45;;;17.40;1.00;;;;;;5033850;28;20110;-81
2021/08/01 00:44:04;;;;;;;3.67;2.30;;;17.40;1.00;;;;;;5029963;28;20040;-81
2021/08/01 00:46:30;;;;;;;2.50;2.30;;;17.40;1.00;;;;;;5035568;28;20097;-81
2021/08/01 00:48:55;;;;;;;4.25;2.70;;;17.40;1.00;;;;;;5024586;28;20478;-81
2021/08/01 00:51:21;;;;;;;3.47;3.08;;;17.40;1.00;;;;;;5033638;28;20029;-81
2021/08/01 00:53:47;;;;;;;4.50;2.58;;;17.30;1.00;;;;;;5032314;28;20034;-81
2021/08/01 00:56:15;;;;;;;4.28;2.70;;;17.30;1.00;;;;;;5030298;28;20025;-81
2021/08/01 00:58:41;;;;;;;2.88;2.50;;;17.30;1.00;;;;;;5032100;28;20040;-81
2021/08/01 01:01:13;;;;;;;5.32;2.65;;;17.40;1.00;;;;;;5035081;28;20029;-81
2021/08/01 01:03:53;;;;;;;3.85;2.70;;;17.40;1.00;;;;;;5034840;28;20045;-81
2021/08/01 01:06:22;;;;;;;6.07;2.80;;;17.30;1.00;;;;;;5033889;28;20116;-81
2021/08/01 01:09:06;;;;;;;4.82;2.95;;;17.30;1.00;;;;;;5033426;28;20021;-81
2021/08/01 01:11:37;;;;;;;3.70;2.85;;;17.20;1.00;;;;;;5034018;28;20025;-81
2021/08/01 01:14:03;;;;;;;11.65;3.20;;;17.00;1.00;;;;;;5030565;28;20026;-81
2021/08/01 01:16:36;;;;;;;5.75;3.20;;;17.10;1.00;;;;;;5034784;28;20022;-81
2021/08/01 01:19:02;;;;;;;6.70;2.95;;;17.10;1.00;;;;;;5034821;28;20053;-81
2021/08/01 01:21:31;;;;;;;3.88;3.20;;;17.00;1.00;;;;;;5033288;28;20028;-81
2021/08/01 01:24:08;;;;;;;3.83;3.13;;;17.00;1.00;;;;;;5033182;28;20060;-81
2021/08/01 01:26:41;;;;;;;3.00;2.80;;;17.10;1.00;;;;;;5033923;28;20029;-81
2021/08/01 01:29:06;;;;;;;5.13;3.30;;;17.10;1.00;;;;;;5030039;28;20084;-81
2021/08/01 01:31:45;;;;;;;3.55;2.70;;;17.20;1.00;;;;;;5034198;28;20025;-82
2021/08/01 01:34:23;;;;;;;5.50;2.75;;;17.10;1.00;;;;;;5035884;28;20080;-81
2021/08/01 01:36:51;;;;;;;4.75;2.97;;;17.00;1.00;;;;;;5035337;28;20033;-81
2021/08/01 01:39:19;;;;;;;5.68;3.50;;;17.00;1.00;;;;;;5036953;28;20040;-81
2021/08/01 01:41:46;;;;;;;5.65;3.55;;;17.00;1.00;;;;;;5037198;28;20099;-81
2021/08/01 01:44:13;;;;;;;6.05;3.13;;;16.90;1.00;;;;;;5034560;28;20409;-81
2021/08/01 01:46:40;;;;;;;5.20;2.97;;;17.00;1.00;;;;;;5035793;28;20079;-81
2021/08/01 01:49:09;;;;;;;4.95;3.40;;;17.00;1.00;;;;;;5038685;28;20033;-81
2021/08/01 01:51:36;;;;;;;4.65;3.20;;;17.00;1.00;;;;;;5036246;28;20053;-81
2021/08/01 01:54:03;;;;;;;4.50;3.38;;;17.10;1.00;;;;;;5037055;28;20064;-81
2021/08/01 01:56:31;;;;;;;4.15;3.30;;;17.10;1.00;;;;;;5036601;28;20029;-83
2021/08/01 01:58:58;;;;;;;5.72;3.08;;;17.10;1.00;;;;;;5016946;28;20038;-84
2021/08/01 02:01:23;;;;;;;4.55;3.30;;;17.10;1.00;;;;;;5038341;28;20032;-84
2021/08/01 02:03:51;;;;;;;4.95;3.60;;;17.10;1.00;;;;;;5036976;28;20437;-83
2021/08/01 02:06:17;;;;;;;3.95;3.20;;;17.10;1.00;;;;;;5035928;28;20560;-83
2021/08/01 02:09:06;;;;;;;3.65;3.22;;;17.10;1.00;;;;;;5036627;28;20507;-83
2021/08/01 02:12:03;;;;;;;3.83;3.00;;;17.10;1.00;;;;;;4968262;28;20047;-84
2021/08/01 02:14:45;;;;;;;3.40;3.10;;;17.10;1.00;;;;;;4949071;29;20103;-84
2021/08/01 02:17:16;;;;;;;3.42;3.08;;;17.10;1.00;;;;;;4952135;28;20054;-83
2021/08/01 02:19:44;;;;;;;6.65;3.00;;;17.10;1.00;;;;;;4966503;28;20023;-83
2021/08/01 02:22:11;;;;;;;3.45;3.15;;;17.10;1.00;;;;;;4956997;28;20423;-83
2021/08/01 02:24:38;;;;;;;3.75;3.08;;;17.00;1.00;;;;;;4957210;28;20039;-83
2021/08/01 02:27:06;;;;;;;3.72;3.22;;;16.90;1.00;;;;;;4957309;28;20042;-84
2021/08/01 02:29:32;;;;;;;4.30;3.30;;;16.80;1.00;;;;;;4957107;28;20507;-84
2021/08/01 02:31:58;;;;;;;5.28;3.58;;;16.90;1.00;;;;;;4938082;29;20039;-84
2021/08/01 02:34:25;;;;;;;5.50;2.90;;;16.90;1.00;;;;;;4963812;28;20033;-84
2021/08/01 02:36:53;;;;;;;5.05;3.10;;;16.90;1.00;;;;;;4959067;28;20043;-83
2021/08/01 02:39:20;;;;;;;4.82;3.08;;;16.80;1.00;;;;;;4960504;28;20050;-83
2021/08/01 02:41:46;;;;;;;3.92;3.20;;;16.90;1.00;;;;;;4959790;28;20058;-84
2021/08/01 02:44:16;;;;;;;6.35;3.63;;;16.90;1.00;;;;;;4965596;28;20113;-84
2021/08/01 02:46:42;;;;;;;4.00;3.30;;;17.00;1.00;;;;;;4966074;28;20098;-84
2021/08/01 02:49:18;;;;;;;3.50;3.10;;;16.90;1.00;;;;;;5021047;28;20528;-82
2021/08/01 02:51:47;;;;;;;3.85;2.92;;;17.00;1.00;;;;;;5035600;28;20045;-82
2021/08/01 02:54:13;;;;;;;8.75;3.50;;;17.00;1.00;;;;;;5034484;28;20397;-82
2021/08/01 02:56:39;;;;;;;5.03;3.25;;;16.90;1.00;;;;;;5035594;28;20024;-82
2021/08/01 02:59:06;;;;;;;3.47;3.05;;;16.80;1.00;;;;;;5032075;28;20030;-82
2021/08/01 03:01:32;;;;;;;4.35;3.58;;;16.80;1.00;;;;;;5036595;28;20108;-81
2021/08/01 03:03:59;;;;;;;5.82;3.10;;;16.80;1.00;;;;;;5026979;28;20032;-82
2021/08/01 03:06:32;;;;;;;3.90;3.10;;;16.80;1.00;;;;;;5035439;28;20061;-82
2021/08/01 03:09:03;;;;;;;5.15;3.50;;;16.80;1.00;;;;;;5033884;28;20100;-82
2021/08/01 03:11:35;;;;;;;5.05;3.60;;;16.80;1.00;;;;;;5028942;28;20021;-81
2021/08/01 03:14:02;;;;;;;6.15;3.40;;;16.80;1.00;;;;;;5016369;28;20026;-81
2021/08/01 03:16:28;;;;;;;4.53;3.40;;;16.80;1.00;;;;;;5036847;28;20037;-82
2021/08/01 03:18:54;;;;;;;3.70;3.22;;;16.90;1.00;;;;;;5034424;28;20413;-81
2021/08/01 03:21:19;;;;;;;6.03;3.55;;;16.80;1.00;;;;;;5035130;28;20378;-82
2021/08/01 03:23:45;;;;;;;6.47;3.72;;;16.70;1.00;;;;;;5035448;28;20029;-82
2021/08/01 03:26:11;;;;;;;6.20;3.70;;;16.80;1.00;;;;;;5031912;28;20028;-81
2021/08/01 03:28:36;;;;;;;4.38;3.33;;;16.80;1.00;;;;;;5034666;28;20045;-82
2021/08/01 03:31:02;;;;;;;5.65;3.90;;;16.80;1.00;;;;;;5034900;28;20029;-82
2021/08/01 03:33:28;;;;;;;5.82;3.50;;;16.80;1.00;;;;;;5023347;28;20482;-82
2021/08/01 03:35:53;;;;;;;6.75;3.55;;;16.90;1.00;;;;;;5025257;28;20032;-82
2021/08/01 03:38:19;;;;;;;6.70;3.85;;;16.90;1.00;;;;;;5033171;28;20045;-82
2021/08/01 03:40:45;;;;;;;4.28;3.60;;;16.90;1.00;;;;;;5032470;28;20025;-82
2021/08/01 03:43:11;;;;;;;7.53;3.42;;;16.90;1.00;;;;;;5036762;28;20060;-81
2021/08/01 03:45:36;;;;;;;7.75;3.70;;;16.90;1.00;;;;;;5034495;28;20032;-81
2021/08/01 03:48:02;;;;;;;7.43;3.83;;;17.00;1.00;;;;;;5034503;28;20032;-81
2021/08/01 03:50:28;;;;;;;5.80;3.38;;;17.00;1.00;;;;;;5034098;28;20017;-82
2021/08/01 03:52:53;;;;;;;4.18;3.60;;;16.90;1.00;;;;;;5031572;28;20048;-82
2021/08/01 03:55:19;;;;;;;4.60;3.35;;;17.00;1.00;;;;;;5036885;28;20055;-82
2021/08/01 03:57:45;;;;;;;6.65;3.47;;;17.00;1.00;;;;;;5033681;28;20041;-81
2021/08/01 04:00:11;;;;;;;4.88;3.70;;;17.00;1.00;;;;;;5034478;28;20021;-82
2021/08/01 04:02:37;;;;;;;5.40;3.55;;;17.00;1.00;;;;;;5026920;28;20108;-82
2021/08/01 04:05:07;;;;;;;3.85;3.47;;;17.10;1.00;;;;;;5030358;28;20029;-82
2021/08/01 04:07:33;;;;;;;4.68;3.88;;;17.20;1.00;;;;;;5035419;28;20021;-81
2021/08/01 04:09:59;;;;;;;5.20;3.60;;;17.20;1.00;;;;;;5033853;28;20486;-82
2021/08/01 04:12:24;;;;;;;5.40;3.83;;;17.20;1.00;;;;;;5032758;28;20100;-82
2021/08/01 04:14:50;;;;;;;5.22;3.40;;;17.20;1.00;;;;;;5034016;28;20124;-82
2021/08/01 04:17:19;;;;;;;5.32;4.15;;;17.20;1.00;;;;;;5031533;28;20041;-82
2021/08/01 04:19:46;;;;;;;4.68;3.70;;;17.20;1.00;;;;;;5032331;28;20460;-82
2021/08/01 04:22:15;;;;;;;6.63;3.90;;;17.10;1.00;;;;;;5036068;28;20016;-82
2021/08/01 04:24:41;;;;;;;5.90;3.78;;;17.00;1.00;;;;;;5034558;28;20099;-82
2021/08/01 04:27:07;;;;;;;6.82;3.83;;;17.00;1.00;;;;;;5034854;28;20281;-81
2021/08/01 04:29:32;;;;;;;4.95;3.85;;;17.10;1.00;;;;;;5033945;28;20025;-81
2021/08/01 04:31:59;;;;;;;4.57;3.72;;;17.10;1.00;;;;;;5013605;28;20116;-81
2021/08/01 04:34:24;;;;;;;6.40;3.95;;;17.20;1.00;;;;;;5030617;28;20440;-81
2021/08/01 04:36:50;;;;;;;5.85;3.83;;;17.10;1.00;;;;;;5033673;28;20029;-81
2021/08/01 04:39:16;;;;;;;5.10;3.92;;;17.10;1.00;;;;;;5034370;28;20025;-81
2021/08/01 04:41:42;;;;;;;4.90;4.40;;;17.20;1.00;;;;;;5025980;28;20021;-81
2021/08/01 04:44:08;;;;;;;7.25;4.47;;;17.00;1.00;;;;;;5028799;28;20164;-81
2021/08/01 04:46:33;;;;;;;8.07;5.28;;;17.00;1.00;;;;;;5034463;28;20109;-81
2021/08/01 04:48:59;;;;;;;6.00;4.35;;;17.10;1.00;;;;;;5032566;28;20025;-81
2021/08/01 04:51:25;;;;;;;5.93;4.93;;;17.20;1.00;;;;;;5032597;28;20040;-82
2021/08/01 04:53:51;;;;;;;6.40;4.65;;;17.10;1.00;;;;;;5033679;28;20358;-82
2021/08/01 04:56:16;;;;;;;7.28;4.50;;;17.20;1.00;;;;;;5032719;28;20477;-81
2021/08/01 04:58:42;;;;;;;6.03;4.28;;;17.20;1.00;;;;;;5031658;28;20037;-81
2021/08/01 05:01:15;;;;;;;6.35;4.68;;;17.00;1.00;;;;;;5034969;28;20168;-81
2021/08/01 05:03:42;;;;;;;6.63;4.65;;;17.00;1.00;;;;;;5034245;28;20034;-81
2021/08/01 05:06:08;;;;;;;5.95;5.18;;;17.20;1.00;;;;;;5033614;28;20052;-81
2021/08/01 05:08:34;;;;;;;8.43;5.45;;;17.30;1.00;;;;;;5034730;28;20033;-81
2021/08/01 05:11:00;;;;;;;7.13;5.43;;;17.40;1.00;;;;;;5033743;28;20508;-81
2021/08/01 05:13:25;;;;;;;7.15;5.35;;;17.50;1.00;;;;;;5039577;28;20367;-81
2021/08/01 05:15:51;;;;;;;9.00;5.50;;;17.50;1.00;;;;;;5037978;28;20473;-82
2021/08/01 05:18:17;;;;;;;8.00;5.63;;;17.40;1.00;;;;;;5037349;28;20061;-82
2021/08/01 05:20:43;;;;;;;8.15;6.45;;;17.40;1.00;;;;;;5037592;28;20116;-81
2021/08/01 05:23:10;;;;;;;7.70;6.05;;;17.50;1.00;;;;;;5034764;28;20029;-82
2021/08/01 05:25:37;;;;;;;8.88;5.82;;;17.60;1.00;;;;;;5036900;28;20045;-81
2021/08/01 05:28:03;;;;;;;10.43;6.38;;;17.60;1.00;;;;;;5036567;28;20489;-82
2021/08/01 05:30:29;;;;;;;12.13;6.50;;;17.60;1.00;;;;;;5035932;28;20029;-82
2021/08/01 05:32:55;;;;;;;10.60;6.05;;;17.50;1.00;;;;;;5037388;28;20025;-81
2021/08/01 05:35:21;;;;;;;8.68;6.07;;;17.60;1.00;;;;;;5030280;28;20040;-82
2021/08/01 05:37:46;;;;;;;7.90;5.90;;;17.60;1.00;;;;;;5034419;28;20432;-81
2021/08/01 05:40:12;;;;;;;7.30;5.72;;;17.70;1.00;;;;;;5039005;28;20395;-81
2021/08/01 05:42:38;;;;;;;9.75;6.13;;;17.60;1.00;;;;;;5037360;28;20036;-81
2021/08/01 05:45:06;;;;;;;9.57;6.00;;;17.60;1.00;;;;;;5036763;28;20065;-80
2021/08/01 05:47:35;;;;;;;9.15;6.40;;;17.60;1.00;;;;;;5035947;28;20489;-82
2021/08/01 05:50:02;;;;;;;13.10;6.10;;;17.70;1.00;;;;;;5017050;28;20056;-85
2021/08/01 05:52:27;;;;;;;11.75;6.22;;;17.70;1.00;;;;;;5033614;28;20061;-82
2021/08/01 05:54:53;;;;;;;11.52;6.03;;;17.70;1.00;;;;;;5037826;28;20072;-85
2021/08/01 05:57:19;;;;;;;7.22;6.10;;;17.70;1.00;;;;;;5036468;28;20091;-82
2021/08/01 05:59:45;;;;;;;11.00;5.88;;;17.80;1.00;;;;;;5036604;28;20465;-82
2021/08/01 06:02:11;;;;;;;7.43;6.07;;;17.70;1.00;;;;;;5033294;28;20039;-83
2021/08/01 06:04:37;;;;;;;7.40;5.95;;;17.70;1.00;;;;;;5036744;28;20459;-84
2021/08/01 06:07:03;;;;;;;8.30;5.75;;;17.80;1.00;;;;;;5037288;28;20116;-83
2021/08/01 06:09:28;;;;;;;8.98;5.70;;;17.80;1.00;;;;;;5034997;28;20124;-82
2021/08/01 06:11:54;;;;;;;8.77;6.35;;;17.90;1.00;;;;;;5036142;28;20026;-83
2021/08/01 06:14:20;;;;;;;9.05;5.93;;;17.90;1.00;;;;;;5034593;28;20036;-83
2021/08/01 06:16:45;;;;;;;7.45;5.60;;;17.90;1.00;;;;;;5033860;28;20033;-83
2021/08/01 06:19:11;;;;;;;8.60;5.80;;;17.90;1.00;;;;;;5038128;28;20076;-83
2021/08/01 06:21:37;;;;;;;12.32;6.18;;;18.10;1.00;;;;;;5035404;28;20398;-83
2021/08/01 06:24:02;;;;;;;8.65;5.75;;;18.10;1.00;;;;;;5036493;28;20022;-83
2021/08/01 06:26:28;;;;;;;8.82;5.88;;;18.20;1.00;;;;;;5035398;28;20051;-83
2021/08/01 06:28:53;;;;;;;6.35;5.45;;;18.30;1.00;;;;;;5033487;28;20021;-84
2021/08/01 06:31:19;;;;;;;9.70;5.60;;;18.30;1.00;;;;;;5048488;28;20045;-84
2021/08/01 06:33:45;;;;;;;10.18;5.88;;;18.30;1.00;;;;;;5055341;23;20021;-80
2021/08/01 06:36:15;;;;;;;7.60;6.05;;;18.40;1.00;;;;;;5071163;28;20051;-80
2021/08/01 06:38:43;;;;;;;10.93;6.40;;;18.60;1.00;;;;;;5071339;28;20115;-80
2021/08/01 06:41:08;;;;;;;9.95;6.43;;;18.70;1.00;;;;;;5071326;28;20021;-80
2021/08/01 06:43:34;;;;;;;9.90;5.90;;;18.60;1.00;;;;;;5057697;28;20035;-80
2021/08/01 06:46:00;;;;;;;10.80;6.57;;;18.40;1.00;;;;;;5070428;28;20028;-80
2021/08/01 06:48:26;;;;;;;7.07;5.43;;;18.40;1.00;;;;;;5069729;28;20548;-80
2021/08/01 06:50:52;;;;;;;9.13;5.90;;;18.50;1.00;;;;;;5071410;28;20032;-80
2021/08/01 06:53:18;;;;;;;7.00;6.30;;;18.60;1.00;;;;;;5071434;28;20028;-80
2021/08/01 06:55:44;;;;;;;8.60;5.82;;;18.50;1.00;;;;;;5071244;28;20033;-80
2021/08/01 06:58:09;;;;;;;10.55;5.85;;;18.70;1.00;;;;;;5072667;28;20055;-80
2021/08/01 07:00:36;;;;;;;10.10;5.60;;;19.10;1.00;;;;;;5071037;28;20025;-80
2021/08/01 07:03:02;;;;;;;8.57;5.53;;;19.30;1.00;;;;;;5071007;28;20028;-80
2021/08/01 07:05:29;;;;;;;8.32;5.13;;;19.50;1.00;;;;;;5071504;28;20016;-80
2021/08/01 07:07:55;;;;;;;6.25;4.65;;;19.70;1.00;;;;;;5071038;28;20106;-80
2021/08/01 07:10:22;;;;;;;5.85;4.95;;;19.90;1.00;;;;;;5072645;28;20056;-80
2021/08/01 07:12:48;;;;;;;8.68;4.95;;;20.20;1.00;;;;;;5070463;28;20074;-80
2021/08/01 07:15:22;;;;;;;9.73;5.07;;;20.20;1.00;;;;;;5070089;28;20025;-79
2021/08/01 07:17:47;;;;;;;7.55;5.18;;;20.30;1.00;;;;;;5070768;28;20035;-79
2021/08/01 07:20:13;;;;;;;6.15;4.80;;;20.10;1.00;;;;;;5052713;28;20036;-79
2021/08/01 07:22:40;;;;;;;8.95;5.15;;;20.50;1.00;;;;;;5071551;28;20445;-80
2021/08/01 07:25:07;;;;;;;10.43;5.22;;;20.60;99.90;;;;;;5070223;28;20111;-81
2021/08/01 07:27:33;;;;;;;6.25;5.00;;;20.50;99.90;;;;;;5068953;28;20035;-81
2021/08/01 07:29:59;;;;;;;7.97;4.93;;;20.00;99.90;;;;;;5070248;28;20020;-80
2021/08/01 07:32:25;;;;;;;8.00;5.18;;;19.80;1.00;;;;;;5070324;28;20024;-81
2021/08/01 07:34:50;;;;;;;8.23;5.20;;;19.60;1.00;;;;;;5070290;28;20157;-80
2021/08/01 07:37:17;;;;;;;7.97;4.65;;;19.70;1.00;;;;;;5072654;28;20397;-81
2021/08/01 07:39:43;;;;;;;8.52;4.53;;;19.80;1.00;;;;;;5055913;28;20025;-80
2021/08/01 07:42:09;;;;;;;6.13;4.30;;;19.70;1.00;;;;;;5069910;28;20024;-81
2021/08/01 07:44:46;;;;;;;6.65;4.53;;;19.70;1.00;;;;;;5070108;28;20033;-81
2021/08/01 07:47:13;;;;;;;5.10;3.95;;;20.00;1.00;;;;;;5070378;28;20055;-81
2021/08/01 07:49:39;;;;;;;8.95;4.60;;;19.90;1.00;;;;;;5071653;28;20041;-80
2021/08/01 07:52:05;;;;;;;8.73;4.50;;;20.00;99.90;;;;;;5070960;28;20019;-81
2021/08/01 07:54:30;;;;;;;7.10;4.60;;;20.10;99.90;;;;;;5069372;28;20151;-81
2021/08/01 07:56:56;;;;;;;5.30;4.03;;;20.30;99.90;;;;;;5070077;28;20024;-81
2021/08/01 07:59:22;;;;;;;6.95;4.40;;;20.40;99.90;;;;;;5052327;28;20415;-81
2021/08/01 08:01:47;;;;;;;7.03;4.38;;;20.30;99.90;;;;;;5070755;28;20035;-81
2021/08/01 08:04:13;;;;;;;6.88;4.43;;;20.10;99.90;;;;;;5069683;28;20036;-80
2021/08/01 08:06:39;;;;;;;7.65;3.88;;;20.30;99.90;;;;;;5067689;28;20036;-80
2021/08/01 08:09:05;;;;;;;4.47;4.00;;;20.30;99.90;;;;;;5069296;28;20473;-81
2021/08/01 08:11:31;;;;;;;6.15;4.47;;;20.40;99.90;;;;;;5069676;28;20101;-81
2021/08/01 08:13:57;;;;;;;7.72;4.15;;;20.70;99.90;;;;;;5069549;28;20036;-80
2021/08/01 08:16:22;;;;;;;7.50;4.15;;;20.90;99.90;;;;;;5071612;28;20037;-80
2021/08/01 08:18:51;;;;;;;6.60;4.10;;;20.70;99.90;;;;;;5069721;28;20049;-80
2021/08/01 08:21:17;;;;;;;5.30;3.60;;;20.60;99.90;;;;;;5069476;28;20028;-81
2021/08/01 08:23:43;;;;;;;5.03;3.90;;;20.50;99.90;;;;;;5069110;28;20205;-81
2021/08/01 08:26:09;;;;;;;7.50;4.55;;;20.50;99.90;;;;;;5070130;28;20043;-81
2021/08/01 08:28:35;;;;;;;8.55;4.90;;;20.40;99.90;;;;;;5070688;28;20078;-81
2021/08/01 08:31:01;;;;;;;6.30;4.32;;;20.50;99.90;;;;;;5070040;28;20036;-81
2021/08/01 08:33:26;;;;;;;7.05;4.60;;;20.70;99.90;;;;;;5070082;28;20060;-81
2021/08/01 08:35:52;;;;;;;5.85;4.70;;;20.70;99.90;;;;;;5069292;28;20131;-81
2021/08/01 08:38:18;;;;;;;6.00;4.35;;;20.50;99.90;;;;;;5069013;28;20520;-81
2021/08/01 08:40:44;;;;;;;6.97;3.85;;;20.60;99.90;;;;;;5070638;28;20024;-81
2021/08/01 08:43:10;;;;;;;6.93;4.15;;;21.00;99.90;;;;;;5070680;28;20101;-81
2021/08/01 08:45:37;;;;;;;4.68;3.80;;;21.20;99.90;;;;;;5074328;28;20496;-81
2021/08/01 08:48:05;;;;;;;7.00;3.88;;;21.40;99.90;;;;;;5075694;28;20025;-81
2021/08/01 08:50:33;;;;;;;4.00;3.58;;;21.50;99.90;;;;;;5058329;28;20012;-80
2021/08/01 08:53:04;;;;;;;6.15;3.38;;;21.60;99.90;;;;;;5057753;28;20039;-80
2021/08/01 08:55:36;;;;;;;4.22;3.50;;;21.60;99.90;;;;;;5074200;28;20043;-81
2021/08/01 08:58:04;;;;;;;4.50;3.08;;;21.80;99.90;;;;;;5074955;28;20064;-80
2021/08/01 09:00:32;;;;;;;4.03;3.30;;;22.00;99.90;;;;;;5075779;28;20361;-81
2021/08/01 09:02:57;;;;;;;6.32;3.70;;;22.00;99.90;;;;;;5075624;28;20653;-81
2021/08/01 09:05:23;;;;;;;4.85;3.50;;;22.20;99.90;;;;;;5075772;28;20045;-80
2021/08/01 09:07:49;;;;;;;4.75;3.53;;;22.50;99.90;;;;;;5075963;28;20021;-80
2021/08/01 09:10:15;;;;;;;4.00;3.60;;;22.30;99.90;;;;;;5064623;28;20142;-80
2021/08/01 09:12:54;;;;;;;4.57;3.13;;;22.60;99.90;;;;;;5075655;28;20024;-80
2021/08/01 09:15:24;;;;;;;4.80;3.40;;;23.40;99.90;;;;;;5076002;28;20037;-80
2021/08/01 09:17:54;;;;;;;8.30;3.88;;;24.00;99.90;;;;;;5075997;28;20032;-80
2021/08/01 09:20:22;;;;;;;5.43;3.60;;;24.50;99.90;;;;;;5074517;28;20056;-80
2021/08/01 09:22:59;;;;;;;18.15;4.65;;;24.80;99.90;;;;;;5076402;28;20047;-80
2021/08/01 09:25:36;;;;;;;4.63;3.00;;;25.20;99.90;;;;;;5077441;28;20020;-80
2021/08/01 09:28:17;;;;;;;4.93;3.03;;;25.40;99.90;;;;;;5074588;28;20036;-81
2021/08/01 09:30:53;;;;;;;4.18;2.97;;;25.00;99.90;;;;;;5075190;28;20503;-81
2021/08/01 09:33:39;;;;;;;4.93;3.58;;;24.90;99.90;;;;;;5075030;28;20032;-80
2021/08/01 09:36:11;;;;;;;10.75;3.78;;;24.40;99.90;;;;;;5075227;28;20090;-80
2021/08/01 09:38:48;;;;;;;5.75;3.53;;;24.10;99.90;;;;;;5075949;28;20489;-77
2021/08/01 09:41:17;;;;;;;5.15;3.22;;;23.60;99.90;;;;;;5075592;28;20099;-78
2021/08/01 09:43:56;;;;;;;5.90;3.65;;;22.90;99.90;;;;;;5076385;28;20374;-80
2021/08/01 09:46:40;;;;;;;5.43;3.28;;;22.50;99.90;;;;;;5076927;28;20047;-80
2021/08/01 09:49:23;;;;;;;11.07;3.83;;;22.00;99.90;;;;;;5076164;28;20029;-81
2021/08/01 09:51:54;;;;;;;5.10;3.40;;;22.10;99.90;;;;;;5075308;28;20036;-80
2021/08/01 09:54:21;;;;;;;4.78;3.20;;;21.70;99.90;;;;;;5074743;28;20115;-80
2021/08/01 09:56:58;;;;;;;4.97;3.80;;;21.70;99.90;;;;;;5071364;28;20396;-80
2021/08/01 09:59:32;;;;;;;4.03;3.10;;;21.50;99.90;;;;;;5071433;28;20120;-81
2021/08/01 10:01:59;;;;;;;4.32;3.33;;;21.20;99.90;;;;;;5071780;28;20032;-79
2021/08/01 10:04:37;;;;;;;4.18;2.83;;;21.40;99.90;;;;;;5073441;28;20025;-80
2021/08/01 10:07:13;;;;;;;4.15;3.13;;;21.70;99.90;;;;;;5071476;28;20115;-79
2021/08/01 10:09:41;;;;;;;3.47;2.95;;;22.10;99.90;;;;;;5073139;28;20032;-81
2021/08/01 10:12:08;;;;;;;4.55;3.03;;;22.40;99.90;;;;;;5072241;28;20025;-80
2021/08/01 10:14:35;;;;;;;5.40;3.00;;;22.80;99.90;;;;;;5072136;28;20027;-80
2021/08/01 10:17:01;;;;;;;3.88;2.70;;;23.50;99.90;;;;;;5071550;28;20033;-81
2021/08/01 10:19:27;;;;;;;4.25;3.05;;;24.20;99.90;;;;;;5073533;28;20081;-80
2021/08/01 10:21:57;;;;;;;7.78;3.20;;;24.30;99.90;;;;;;5071762;28;20032;-80
2021/08/01 10:24:37;;;;;;;4.25;3.00;;;23.30;99.90;;;;;;5072247;28;20032;-81
2021/08/01 10:27:05;;;;;;;5.00;2.90;;;22.80;99.90;;;;;;5071793;28;20017;-80
2021/08/01 10:29:55;;;;;;;17.42;3.50;;;23.00;99.90;;;;;;5071547;28;20031;-80
2021/08/01 10:32:22;;;;;;;10.90;3.45;;;23.40;99.90;;;;;;5058481;28;20079;-80
2021/08/01 10:35:15;;;;;;;3.50;2.65;;;23.50;99.90;;;;;;5070987;28;20063;-84
2021/08/01 10:37:44;;;;;;;4.45;2.47;;;23.90;99.90;;;;;;5069574;28;20029;-85
2021/08/01 10:40:13;;;;;;;3.33;2.50;;;24.40;99.90;;;;;;5057419;28;20037;-84
2021/08/01 10:42:42;;;;;;;4.47;2.75;;;25.10;99.90;;;;;;5069561;28;20025;-84
2021/08/01 10:45:09;;;;;;;5.95;2.78;;;25.60;99.90;;;;;;5057837;28;20551;-86
2021/08/01 10:47:36;;;;;;;4.07;2.60;;;25.30;99.90;;;;;;5071416;28;20055;-84
2021/08/01 10:50:05;;;;;;;3.20;2.50;;;25.70;99.90;;;;;;5055073;28;20029;-83
2021/08/01 10:52:35;;;;;;;2.83;2.38;;;25.10;99.90;;;;;;5069428;28;20082;-86
2021/08/01 10:55:06;;;;;;;3.35;2.17;;;25.20;99.90;;;;;;5071183;28;20041;-87
2021/08/01 10:57:33;;;;;;;5.55;2.22;;;25.30;99.90;;;;;;5071344;28;20116;-89
2021/08/01 11:00:09;;;;;;;3.95;2.30;;;25.20;99.90;;;;;;5070124;28;20036;-80
2021/08/01 11:02:35;;;;;;;2.42;1.90;;;25.80;99.90;;;;;;5070857;28;20013;-84
2021/08/01 11:05:33;;;;;;;2.22;2.05;;;25.40;99.90;;;;;;5069648;28;20040;-88
2021/08/01 11:07:59;;;;;;;2.88;2.15;;;25.20;99.90;;;;;;5071012;28;20032;-88
2021/08/01 11:10:25;;;;;;;3.03;2.33;;;25.80;99.90;;;;;;5059370;28;20040;-81
2021/08/01 11:12:51;;;;;;;2.53;2.10;;;26.00;99.90;;;;;;5070614;28;20028;-80
2021/08/01 11:15:17;;;;;;;4.05;2.58;;;25.70;99.90;;;;;;5070948;28;20108;-80
2021/08/01 11:17:42;;;;;;;4.65;2.10;;;24.90;99.90;;;;;;5069022;28;20538;-80
2021/08/01 11:20:23;;;;;;;2.75;2.53;;;24.00;99.90;;;;;;5051031;28;20033;-80
2021/08/01 11:22:50;;;;;;;4.82;2.47;;;23.00;99.90;;;;;;5070937;28;20362;-81
2021/08/01 11:25:31;;;;;;;6.25;3.25;;;22.50;99.90;;;;;;5072286;28;20508;-81
2021/08/01 11:30:50;;;;;;;4.30;2.78;;;22.10;99.90;;;;;;5070388;28;20554;-94
2021/08/01 11:33:39;;;;;;;4.32;2.58;;;22.10;99.90;;;;;;5069930;28;20028;-81
2021/08/01 11:36:30;;;;;;;4.05;2.60;;;22.00;99.90;;;;;;5069953;28;20063;-78
2021/08/01 11:38:55;;;;;;;3.90;2.50;;;22.30;99.90;;;;;;5070108;28;20060;-79
2021/08/01 11:41:27;;;;;;;3.85;2.85;;;22.20;99.90;;;;;;5070160;28;20064;-80
2021/08/01 11:44:11;;;;;;;4.80;2.80;;;22.20;99.90;;;;;;5069992;28;20568;-80
2021/08/01 11:46:46;;;;;;;4.43;2.20;;;22.30;99.90;;;;;;5067793;28;20056;-79
2021/08/01 11:49:12;;;;;;;3.25;2.15;;;22.50;99.90;;;;;;5071784;28;20025;-80
2021/08/01 11:51:43;;;;;;;3.40;2.50;;;22.80;99.90;;;;;;5070357;28;20036;-79
2021/08/01 11:54:13;;;;;;;3.53;2.20;;;22.90;99.90;;;;;;5070045;28;20028;-79
2021/08/01 11:56:42;;;;;;;3.17;2.22;;;22.80;99.90;;;;;;5068842;28;20031;-79
2021/08/01 11:59:11;;;;;;;4.30;2.53;;;23.10;99.90;;;;;;5050170;28;20124;-86
2021/08/01 12:01:37;;;;;;;5.40;2.10;;;23.50;99.90;;;;;;5071369;28;20024;-79
2021/08/01 12:04:10;;;;;;;2.75;2.20;;;23.80;99.90;;;;;;5070543;28;20362;-79
2021/08/01 12:06:38;;;;;;;4.63;2.15;;;23.90;99.90;;;;;;5070050;28;20392;-79
2021/08/01 12:09:36;;;;;;;2.80;2.50;;;24.70;99.90;;;;;;5070180;28;20021;-80
2021/08/01 12:12:04;;;;;;;3.65;2.53;;;25.50;99.90;;;;;;5054395;28;20032;-79
2021/08/01 12:14:34;;;;;;;5.25;2.28;;;25.80;99.90;;;;;;5069429;28;20025;-80
2021/08/01 12:17:11;;;;;;;2.95;2.28;;;26.60;99.90;;;;;;5069007;28;20108;-80
2021/08/01 12:19:45;;;;;;;2.92;2.40;;;26.70;99.90;;;;;;5066901;28;20052;-79
2021/08/01 12:22:19;;;;;;;7.93;2.47;;;27.60;99.90;;;;;;5070719;28;20017;-80
2021/08/01 12:24:56;;;;;;;3.25;2.22;;;29.70;99.90;;;;;;5057640;28;20040;-79
2021/08/01 12:27:36;;;;;;;8.88;2.50;;;29.70;99.90;;;;;;5069823;28;20043;-80
2021/08/01 12:30:04;;;;;;;5.32;2.20;;;29.50;99.90;;;;;;5068839;28;20020;-79
2021/08/01 12:32:38;;;;;;;3.20;2.42;;;29.00;99.90;;;;;;5066337;28;20021;-79
2021/08/01 12:35:19;;;;;;;3.38;2.30;;;28.90;99.90;;;;;;5054844;28;20048;-79
2021/08/01 12:37:44;;;;;;;4.80;2.20;;;28.20;99.90;;;;;;5067850;28;20509;-79
2021/08/01 12:40:12;;;;;;;2.15;2.05;;;28.00;99.90;;;;;;5068854;28;20043;-79
2021/08/01 12:42:52;;;;;;;2.97;2.25;;;27.00;99.90;;;;;;5066073;28;20497;-79
2021/08/01 12:45:18;;;;;;;4.55;2.15;;;27.90;99.90;;;;;;5069323;28;20029;-79
2021/08/01 12:47:44;;;;;;;4.07;2.22;;;31.30;99.90;;;;;;5069200;28;20028;-79
2021/08/01 12:50:10;;;;;;;3.70;2.53;;;31.80;99.90;;;;;;5069281;28;20071;-79
2021/08/01 12:52:36;;;;;;;2.40;2.20;;;31.60;99.90;;;;;;5070875;28;20036;-79
2021/08/01 12:55:07;;;;;;;2.85;2.00;;;31.30;99.90;;;;;;5068442;28;20025;-79
2021/08/01 12:57:32;;;;;;;8.38;2.30;;;33.70;99.90;;;;;;5068798;28;20036;-80
2021/08/01 13:00:15;;;;;;;5.10;2.08;;;34.90;99.90;;;;;;5069140;28;20035;-80
2021/08/01 13:02:43;;;;;;;2.95;2.20;;;35.10;99.90;;;;;;5069209;28;20025;-80